Weather at Entrance Island Seaplane Base

Public forecast

Using degrees Fahrenheit for public forecast. Weather courtesy of forecast.io.

Closest aviation weather report (METAR) to Entrance Island Seaplane Base

Closest report is Kake Airport, 31.1 nm (57.6 km) SSW. Retrieved 2020/09/19 14:56 UTC (26 minutes ago):

PAFE 191456Z AUTO 05003KT 10SM CLR 06/06 A2992 RMK AO2 SLP144 T00610061 51005

Closest aviation forecast (TAF) to Entrance Island Seaplane Base

Closest forecast is Petersburg James A Johnson Airport, 40.0 nm (74.1 km) SSE. Retrieved 2020/09/19 12:28 UTC (3 hours ago):

TAF PAPG 191126Z 1912/2012 07005KT 6SM BR VCSH SCT004 BKN015 TEMPO 1912/1916 3SM BR BKN003 OVC012 FM192000 06005KT P6SM FEW004 BKN025 BKN050 FM192200 06005KT P6SM SCT025 BKN050 FM200800 VRB02KT 4SM BR SCT003 BKN050 AMD LTD TO CLD VIS AND WIND 1912/1915